This is the latest recevied weather packets stored in our database for station/object N9BLE. If no packets are shown the sender has not sent any weather packets the latest 10 day(s).
| Time | Temp. | Humidity | Pressure | Rain* | Wind** | Luminosity | Snow |
|---|---|---|---|---|---|---|---|
| 1777747807 | 12.22° C | 44% | 1022.5 hPa | 0 mm | - | 273 W/m² | - |
| 1777747502 | 12.22° C | 40% | 1022.5 hPa | 0 mm | - | 330 W/m² | - |
| 1777747199 | 13.33° C | 42% | 1022.6 hPa | 0 mm | - | 902 W/m² | - |
| 1777746895 | 12.22° C | 45% | 1022.8 hPa | 0 mm | - | 903 W/m² | - |
| 1777746590 | 12.22° C | 43% | 1022.8 hPa | 0 mm | - | 685 W/m² | - |
| 1777746286 | 11.67° C | 45% | 1022.8 hPa | 0 mm | - | 414 W/m² | - |
| 1777745982 | 11.11° C | 47% | 1023 hPa | 0 mm | - | 455 W/m² | - |
| 1777745680 | 10.56° C | 50% | 1022.9 hPa | 0 mm | - | 249 W/m² | - |
| 1777745379 | 10.56° C | 49% | 1023 hPa | 0 mm | - | 162 W/m² | - |
| 1777745076 | 10.56° C | 47% | 1023 hPa | 0 mm | - | 117 W/m² | - |
| 1777744772 | 10.56° C | 49% | 1023.1 hPa | 0 mm | - | 109 W/m² | - |
| 1777744466 | 11.11° C | 45% | 1023 hPa | 0 mm | - | 98 W/m² | - |
| 1777744163 | 11.11° C | 46% | 1023 hPa | 0 mm | - | 137 W/m² | - |
| 1777743860 | 11.67° C | 44% | 1023.1 hPa | 0 mm | - | 893 W/m² | - |
| 1777743556 | 11.11° C | 48% | 1023 hPa | 0 mm | - | 171 W/m² | - |
| 1777743253 | 11.67° C | 49% | 1023 hPa | 0 mm | - | 166 W/m² | - |
| 1777742952 | 11.11° C | 48% | 1023.1 hPa | 0 mm | - | 275 W/m² | - |
| 1777742649 | 11.11° C | 42% | 1023.1 hPa | 0 mm | - | 426 W/m² | - |
| 1777742344 | 11.67° C | 47% | 1023.3 hPa | 0 mm | - | 216 W/m² | - |
| 1777742041 | 12.78° C | 42% | 1023.4 hPa | 0 mm | - | 829 W/m² | - |
| 1777741738 | 12.22° C | 54% | 1023.2 hPa | 0 mm | - | 328 W/m² | - |
| 1777741434 | 11.67° C | 55% | 1023.3 hPa | 0 mm | - | 216 W/m² | - |
| 1777741130 | 11.67° C | 45% | 1023.3 hPa | 0 mm | - | 200 W/m² | - |
| 1777740828 | 10.56° C | 47% | 1023.3 hPa | 0 mm | - | 204 W/m² | - |
| 1777740525 | 10.56° C | 52% | 1023.4 hPa | 0 mm | - | 234 W/m² | - |
* Rain latest hour (hover to see other rain measurements)
** Current wind speed in m/s (hover to see current wind gust speed)